Meath Environmental Platform

Observations for Trim Market St

Time AQI Temp °C Hum % Pres Pa CO μg/m³ H₂S μg/m³ NO μg/m³ NO₂ μg/m³ O₃ μg/m³ SO₂ μg/m³ PM1 μg/m³ PM2.5 μg/m³ PM10 μg/m³
Thursday 27 August 2026
04:44 2 17 85 2,147,483,647 0.33 0 2.24 3.23 55.72 0 14.96 15.35 22.57
04:43 2 17 85 2,147,483,647 0.34 0 2.15 3.46 62.8 0 14.96 17.67 27.4
04:40 2 17 85 2,147,483,647 0.34 0 2.19 4.4 56.18 0 15.68 17.24 22.03
04:38 2 17 85 2,147,483,647 0.35 0 2.15 4.53 55.71 0 15.68 15.81 23.11
04:37 2 17 85 2,147,483,647 0.33 0 2.17 3.09 59.77 0 15.68 15.81 23.11
04:36 2 17 85 2,147,483,647 0.34 0 2.18 3.03 53.7 0 14.25 15.35 24.72
04:35 2 17 85 2,147,483,647 0.33 0 2.18 3.77 58.6 0 14.96 15.81 24.18
04:33 2 17 85 2,147,483,647 0.33 0 2.18 3.09 56.07 0 12.11 14.42 22.57
04:32 2 17 85 2,147,483,647 0.35 0 2.17 4.53 59.37 0 14.96 16.28 23.64
04:31 2 17 85 2,147,483,647 0.33 0 2.16 3.99 55.2 0 14.96 16.46 20.96
04:30 2 17 85 2,147,483,647 0.35 0 2.15 2.97 57.48 0 14.96 15.34 24.16
04:29 2 17 85 2,147,483,647 0.34 0 2.15 3.99 55.52 0 14.25 15.35 20.96
04:24 2 17 85 2,147,483,647 0.34 0 2.17 3.03 54.26 0 13.54 14.41 20.94
04:22 2 17 85 2,147,483,647 0.34 0 2.2 4.62 59.67 0 14.25 16.27 25.24
04:20 2 17 85 2,147,483,647 0.34 0 2.19 3.1 55.14 0 12.11 13.95 19.34
04:19 2 17 85 2,147,483,647 0.33 0 2.16 3.94 60 0 14.96 16.73 27.92
04:10 2 16.9 85 2,147,483,647 0.32 0 2.25 4.85 60.95 0 13.54 14.87 22
04:09 2 16.9 85 2,147,483,647 0.33 0 2.25 3.73 53.84 0 14.25 14.88 21.48
04:08 2 16.9 85 2,147,483,647 0.34 0 2.25 3.64 54.76 0 14.25 14.88 25.24
04:07 2 16.9 85 2,147,483,647 0.33 0 2.26 3.95 57.23 0 13.54 14.88 22.55